Time;durP1;ratioP1;P1;durP2;ratioP2;P2;SDS_P1;SDS_P2;PMS_P1;PMS_P2;Temp;Humidity;BMP_temperature;BMP_pressure;BME280_temperature;BME280_humidity;BME280_pressure;Samples;Min_cycle;Max_cycle;Signal;HPM_P1;HPM_P2
2021/04/11 00:03:34;;;;;;;58.70;34.97;;;;;;;6.00;79.31;100839.83;4892970;59;1140824;-78
2021/04/11 00:08:59;;;;;;;60.37;37.93;;;;;;;6.04;79.68;100830.02;4893415;59;1140803;-74
2021/04/11 00:14:25;;;;;;;60.53;36.33;;;;;;;6.04;80.07;100819.52;4893522;59;1138556;-75
2021/04/11 00:19:50;;;;;;;65.60;32.77;;;;;;;6.05;80.10;100818.59;4893172;59;1140830;-78
2021/04/11 00:25:24;;;;;;;44.35;25.52;;;;;;;6.09;80.56;100820.13;4892763;59;1140689;-73
2021/04/11 00:30:49;;;;;;;58.43;34.47;;;;;;;6.07;80.53;100811.48;4892926;59;1140340;-72
2021/04/11 00:36:18;;;;;;;57.13;32.65;;;;;;;6.05;80.82;100809.40;4893767;59;1138444;-78
2021/04/11 00:41:47;;;;;;;67.00;38.70;;;;;;;6.04;80.68;100795.04;4893919;59;1140462;-73
2021/04/11 00:47:12;;;;;;;67.62;38.85;;;;;;;6.06;80.73;100799.75;4896182;58;1140854;-75
2021/04/11 00:52:38;;;;;;;85.37;52.80;;;;;;;6.07;81.07;100798.35;4894073;59;1140903;-77
2021/04/11 00:58:04;;;;;;;110.53;64.20;;;;;;;6.07;81.09;100797.04;4894069;59;1138571;-78
2021/04/11 01:03:34;;;;;;;67.03;41.90;;;;;;;6.07;81.21;100796.19;4893845;59;1140812;-74
2021/04/11 01:08:59;;;;;;;87.17;45.95;;;;;;;6.08;81.30;100776.42;4895830;58;1140570;-74
2021/04/11 01:14:25;;;;;;;71.63;42.60;;;;;;;6.12;81.25;100769.19;4896055;59;1140828;-80
2021/04/11 01:19:53;;;;;;;68.37;42.47;;;;;;;6.20;81.23;100774.42;4895708;58;1140661;-72
2021/04/11 01:25:28;;;;;;;65.67;37.88;;;;;;;6.26;81.28;100779.31;4908266;59;1140862;-74
2021/04/11 01:31:05;;;;;;;66.67;38.87;;;;;;;6.26;81.33;100780.63;5043521;57;1138735;-76
2021/04/11 01:36:31;;;;;;;72.90;40.40;;;;;;;6.23;81.50;100772.09;5043096;57;1138661;-75
2021/04/11 01:41:58;;;;;;;57.00;34.70;;;;;;;6.21;81.57;100771.33;5041090;57;1140585;-76
2021/04/11 01:47:24;;;;;;;57.48;35.50;;;;;;;6.22;81.57;100754.18;5040797;57;1140702;-73
2021/04/11 01:52:50;;;;;;;61.93;33.37;;;;;;;6.28;81.50;100749.03;5041918;57;1140638;-80
2021/04/11 01:58:16;;;;;;;77.00;48.30;;;;;;;6.31;81.72;100733.10;5041157;57;1141009;-73
2021/04/11 02:03:42;;;;;;;53.70;32.30;;;;;;;6.27;81.63;100735.05;4898631;59;1138572;-75
2021/04/11 02:09:21;;;;;;;59.50;33.77;;;;;;;6.27;82.28;100721.07;5042963;57;1146942;-73
2021/04/11 02:14:47;;;;;;;57.87;36.97;;;;;;;6.26;81.57;100716.78;5041457;57;1140664;-73
2021/04/11 02:20:14;;;;;;;60.63;35.87;;;;;;;6.26;81.63;100714.16;5041629;57;1140601;-77
2021/04/11 02:25:47;;;;;;;66.83;40.57;;;;;;;6.22;81.63;100712.63;4898609;59;1138839;-74
2021/04/11 02:31:18;;;;;;;59.63;36.85;;;;;;;6.18;81.59;100711.09;5042825;57;1138495;-73
2021/04/11 02:37:10;;;;;;;57.90;35.63;;;;;;;6.18;81.49;100699.28;4950239;58;1140592;-71
2021/04/11 02:42:38;;;;;;;62.97;36.50;;;;;;;6.22;81.43;100702.12;5042554;57;1140373;-77
2021/04/11 02:48:07;;;;;;;70.77;43.40;;;;;;;6.27;81.42;100696.97;5041849;57;1140463;-76
2021/04/11 02:53:36;;;;;;;77.47;46.70;;;;;;;6.32;81.54;100694.94;4950057;58;1140432;-74
2021/04/11 02:59:04;;;;;;;73.30;43.30;;;;;;;6.31;81.44;100693.70;5043012;57;1138701;-78
2021/04/11 03:04:29;;;;;;;68.70;39.40;;;;;;;6.26;81.33;100689.20;5041952;57;1138830;-73
2021/04/11 03:10:01;;;;;;;72.53;40.40;;;;;;;6.22;81.16;100681.11;4950121;58;1140860;-75
2021/04/11 03:15:28;;;;;;;66.80;41.03;;;;;;;6.23;81.20;100683.66;4950181;58;1140568;-75
2021/04/11 03:20:53;;;;;;;53.97;32.97;;;;;;;6.27;81.14;100679.05;4949738;59;1140813;-74
2021/04/11 03:26:39;;;;;;;73.75;38.02;;;;;;;6.29;81.33;100681.13;5023121;57;1140807;-80
2021/04/11 03:32:25;;;;;;;67.47;39.65;;;;;;;6.27;81.10;100682.98;4986053;58;1140601;-78
2021/04/11 03:37:54;;;;;;;79.82;48.58;;;;;;;6.25;80.94;100676.53;4985421;58;1140654;-75
2021/04/11 03:43:28;;;;;;;77.25;49.48;;;;;;;6.21;80.97;100677.63;4985842;58;1140730;-78
2021/04/11 03:49:19;;;;;;;77.23;45.50;;;;;;;6.17;81.04;100676.58;4957203;58;1138443;-77
2021/04/11 03:54:46;;;;;;;82.88;48.40;;;;;;;6.10;81.08;100673.94;4984380;58;1138681;-74
2021/04/11 04:00:15;;;;;;;73.03;39.97;;;;;;;6.05;81.05;100670.71;4986010;58;1146824;-76
2021/04/11 04:05:43;;;;;;;64.37;36.87;;;;;;;6.04;81.17;100674.27;4895253;59;1140476;-77
2021/04/11 04:11:47;;;;;;;77.07;45.30;;;;;;;6.05;81.05;100656.27;4895736;59;1140665;-74
2021/04/11 04:17:26;;;;;;;71.17;39.10;;;;;;;6.04;81.04;100654.58;4987585;58;1138469;-73
2021/04/11 04:23:18;;;;;;;161.10;68.57;;;;;;;5.99;81.30;100652.20;4985384;58;1138312;-73
2021/04/11 04:29:03;;;;;;;166.60;79.27;;;;;;;5.97;80.99;100644.41;4985464;58;1143228;-74
2021/04/11 04:35:02;;;;;;;82.80;45.47;;;;;;;5.99;81.15;100636.45;4758121;60;1142655;-78
2021/04/11 04:40:55;;;;;;;62.53;35.37;;;;;;;5.98;81.14;100628.19;4757971;59;1140584;-78
2021/04/11 04:46:40;;;;;;;58.68;33.45;;;;;;;5.96;81.37;100620.86;4758573;61;1138722;-74
2021/04/11 04:52:18;;;;;;;57.90;34.53;;;;;;;5.97;81.26;100622.56;4758058;61;1140723;-78
2021/04/11 04:57:51;;;;;;;64.70;35.70;;;;;;;6.00;81.35;100619.77;4757986;60;1141336;-73
2021/04/11 05:03:32;;;;;;;54.40;31.53;;;;;;;6.03;81.55;100614.34;4758679;61;1140887;-77
2021/04/11 05:09:22;;;;;;;64.63;36.70;;;;;;;6.03;81.93;100610.88;4764086;58;1138620;-78
2021/04/11 05:14:55;;;;;;;53.33;31.90;;;;;;;6.08;81.61;100606.22;4984985;58;1140672;-74
2021/04/11 05:20:25;;;;;;;56.50;35.45;;;;;;;6.15;81.93;100604.91;4985329;58;1140494;-79
2021/04/11 05:26:15;;;;;;;54.07;32.33;;;;;;;6.19;81.87;100602.03;4985614;58;1138469;-74
2021/04/11 05:31:43;;;;;;;54.77;31.53;;;;;;;6.24;81.83;100592.58;4996474;58;1140536;-74
2021/04/11 05:37:31;;;;;;;55.33;33.43;;;;;;;6.31;81.73;100590.80;4986372;58;1140584;-79
2021/04/11 05:43:08;;;;;;;48.83;27.73;;;;;;;6.39;82.09;100592.14;4985641;58;1140576;-80
2021/04/11 05:48:59;;;;;;;53.47;31.83;;;;;;;6.47;81.91;100588.11;4983978;58;1140841;-75
2021/04/11 05:54:30;;;;;;;153.62;103.42;;;;;;;6.57;81.69;100599.75;4984733;57;1140731;-74
2021/04/11 06:00:09;;;;;;;51.83;31.50;;;;;;;6.68;81.69;100599.98;4986328;58;1144626;-74
2021/04/11 06:06:02;;;;;;;79.82;49.05;;;;;;;6.78;81.74;100602.89;4968284;57;1138811;-73
2021/04/11 06:11:47;;;;;;;50.38;30.10;;;;;;;6.92;81.56;100600.26;4968842;58;1140435;-76
2021/04/11 06:17:14;;;;;;;40.13;23.80;;;;;;;7.14;81.43;100600.27;4991323;58;1140648;-78
2021/04/11 06:23:00;;;;;;;47.70;27.67;;;;;;;7.30;81.16;100597.06;4995188;58;1140670;-75
2021/04/11 06:28:48;;;;;;;37.48;21.85;;;;;;;7.62;79.76;100589.28;5001058;58;1140587;-79
2021/04/11 06:34:21;;;;;;;46.47;27.10;;;;;;;7.62;79.76;100589.28;5001008;58;1140608;-80
2021/04/11 06:39:48;;;;;;;46.17;25.40;;;;;;;7.73;79.77;100585.95;5001256;58;1140447;-75
2021/04/11 06:45:32;;;;;;;54.20;30.20;;;;;;;7.86;79.30;100588.16;4997175;58;1148903;-76
2021/04/11 06:51:18;;;;;;;52.10;29.83;;;;;;;7.98;79.22;100582.55;4961884;58;1141204;-73
2021/04/11 06:56:59;;;;;;;56.47;28.27;;;;;;;8.09;78.93;100572.17;4987250;58;1140698;-77
2021/04/11 07:02:35;;;;;;;55.48;31.15;;;;;;;8.21;78.52;100576.62;4985652;58;1140762;-76
2021/04/11 07:08:23;;;;;;;55.03;31.43;;;;;;;8.35;78.95;100577.88;4993411;58;1140607;-77
2021/04/11 07:14:10;;;;;;;55.87;30.80;;;;;;;8.50;78.45;100575.16;4996308;58;1140669;-74
2021/04/11 07:20:08;;;;;;;53.57;31.80;;;;;;;8.69;78.48;100569.84;5001083;58;1140483;-75
2021/04/11 07:26:21;;;;;;;57.90;31.68;;;;;;;8.96;78.62;100564.91;4999936;57;1140714;-75
2021/04/11 07:32:02;;;;;;;53.80;30.20;;;;;;;9.24;78.48;100555.88;4980249;58;1140535;-74
2021/04/11 07:38:13;;;;;;;57.23;34.13;;;;;;;9.51;77.98;100542.02;4938485;58;1140644;-74
2021/04/11 07:44:00;;;;;;;50.30;29.07;;;;;;;9.75;77.89;100538.91;5018368;58;1141032;-74
2021/04/11 07:49:53;;;;;;;49.60;28.83;;;;;;;10.03;76.35;100544.30;5018896;58;1140630;-74
2021/04/11 07:55:56;;;;;;;47.53;28.38;;;;;;;10.29;75.79;100534.91;5018626;58;1142769;-74
2021/04/11 08:01:56;;;;;;;44.48;26.20;;;;;;;10.57;74.68;100539.28;5018148;58;1142659;-75
2021/04/11 08:07:43;;;;;;;53.42;24.27;;;;;;;10.79;74.22;100532.34;5017642;58;1142664;-75
2021/04/11 08:13:36;;;;;;;35.73;20.07;;;;;;;10.94;74.01;100525.84;5019640;58;1143057;-75
2021/04/11 08:19:34;;;;;;;35.00;19.83;;;;;;;11.12;72.59;100519.58;5019343;58;1142768;-75
2021/04/11 08:25:21;;;;;;;34.70;19.50;;;;;;;11.33;71.62;100520.48;5019325;57;1142809;-74
2021/04/11 08:31:00;;;;;;;25.40;15.27;;;;;;;11.58;70.98;100512.25;5010052;58;1142774;-76
2021/04/11 08:36:33;;;;;;;33.00;16.57;;;;;;;11.96;67.98;100506.44;4931241;58;1142829;-75
2021/04/11 08:42:28;;;;;;;35.23;16.10;;;;;;;12.35;66.92;100508.53;4966819;58;1142740;-76
2021/04/11 08:48:26;;;;;;;23.23;12.73;;;;;;;12.65;64.79;100500.11;4945500;58;1142932;-75
2021/04/11 08:54:31;;;;;;;65.83;48.70;;;;;;;12.92;62.94;100504.82;4946382;58;1142848;-75
2021/04/11 09:00:18;;;;;;;35.68;19.25;;;;;;;12.98;60.91;100488.85;4963257;58;1142714;-75
2021/04/11 09:06:09;;;;;;;25.67;14.60;;;;;;;12.98;59.83;100489.70;4931276;58;1143210;-75
2021/04/11 09:12:01;;;;;;;27.03;14.50;;;;;;;12.99;61.66;100490.02;4976046;58;1142684;-75
2021/04/11 09:17:48;;;;;;;29.48;22.52;;;;;;;13.07;62.29;100485.86;4958727;58;1142660;-76
2021/04/11 09:23:34;;;;;;;23.96;10.74;;;;;;;13.18;60.45;100480.45;5004837;58;1142679;-77
2021/04/11 09:29:34;;;;;;;18.15;7.67;;;;;;;13.35;58.01;100477.14;4683471;61;1142678;-76
2021/04/11 09:35:19;;;;;;;15.13;7.53;;;;;;;13.54;58.56;100465.21;4819394;59;1141074;-76
2021/04/11 09:41:11;;;;;;;18.77;6.17;;;;;;;13.75;56.53;100455.75;4708571;61;1140956;-76
2021/04/11 09:46:46;;;;;;;9.53;4.73;;;;;;;13.94;54.67;100450.91;4706666;61;1140418;-77
2021/04/11 09:52:27;;;;;;;11.80;5.70;;;;;;;14.15;55.28;100434.78;4706076;61;1138581;-75
2021/04/11 09:58:32;;;;;;;10.20;5.10;;;;;;;14.40;54.16;100433.67;4705491;61;1140863;-75
2021/04/11 10:04:29;;;;;;;10.40;5.13;;;;;;;14.66;54.51;100420.56;4719239;61;1140928;-75
2021/04/11 10:10:02;;;;;;;15.90;6.03;;;;;;;14.84;52.25;100411.27;4765527;61;1140632;-76
2021/04/11 10:15:52;;;;;;;12.75;6.42;;;;;;;15.08;51.34;100406.22;4851001;59;1140449;-75
2021/04/11 10:21:58;;;;;;;14.63;5.80;;;;;;;15.42;51.53;100407.73;4915872;59;1147710;-76
2021/04/11 10:27:30;;;;;;;12.60;7.62;;;;;;;15.68;48.86;100398.97;4935010;59;1141136;-75
2021/04/11 10:33:20;;;;;;;12.97;7.60;;;;;;;15.89;49.97;100391.97;4847046;59;1140638;-75
2021/04/11 10:39:04;;;;;;;12.53;7.07;;;;;;;16.10;47.93;100391.92;4876776;58;1140516;-76
2021/04/11 10:44:48;;;;;;;10.00;6.43;;;;;;;16.31;45.55;100378.70;4914839;58;1140774;-76
2021/04/11 10:50:34;;;;;;;13.83;7.60;;;;;;;16.46;47.63;100372.61;4906390;58;1140784;-76
2021/04/11 10:56:18;;;;;;;22.47;8.13;;;;;;;16.68;45.61;100374.37;4828238;59;1140769;-75
2021/04/11 11:02:02;;;;;;;17.17;9.28;;;;;;;16.85;45.43;100384.95;4827851;59;1140764;-75
2021/04/11 11:07:47;;;;;;;16.52;8.60;;;;;;;17.01;46.12;100380.14;4829054;59;1140718;-75
2021/04/11 11:13:30;;;;;;;11.57;6.75;;;;;;;17.18;44.27;100369.83;4827983;59;1140630;-75
2021/04/11 11:19:12;;;;;;;16.48;7.20;;;;;;;17.31;44.15;100363.15;4828285;59;1141022;-76
2021/04/11 11:24:57;;;;;;;15.63;7.70;;;;;;;17.47;45.85;100347.11;4817589;59;1140598;-75
2021/04/11 11:30:48;;;;;;;11.63;6.08;;;;;;;17.75;45.56;100334.24;4818982;59;1140753;-75
2021/04/11 11:36:37;;;;;;;10.90;6.10;;;;;;;17.95;42.22;100338.23;4906649;58;1140738;-75
2021/04/11 11:42:09;;;;;;;13.00;6.97;;;;;;;18.11;42.97;100322.63;4907135;58;1140619;-75
2021/04/11 11:47:59;;;;;;;9.03;5.62;;;;;;;18.22;42.07;100317.73;4905533;58;1140989;-75
2021/04/11 11:53:28;;;;;;;9.73;5.05;;;;;;;18.31;41.38;100327.08;4905402;58;1138823;-75
2021/04/11 11:59:15;;;;;;;10.37;4.60;;;;;;;18.49;40.33;100327.64;4905463;58;1138577;-74
2021/04/11 12:05:08;;;;;;;21.80;5.40;;;;;;;18.66;42.33;100310.52;4814291;59;1140537;-74
2021/04/11 12:10:37;;;;;;;12.80;5.72;;;;;;;18.80;41.07;100302.22;4800446;60;1140814;-75
2021/04/11 12:16:19;;;;;;;17.17;5.00;;;;;;;18.81;40.80;100298.53;4799301;60;1140847;-75
2021/04/11 12:21:58;;;;;;;10.40;5.03;;;;;;;18.91;40.14;100291.95;4796435;60;1140745;-75
2021/04/11 12:27:36;;;;;;;12.04;3.96;;;;;;;18.98;38.19;100288.03;4801615;59;1140734;-75
2021/04/11 12:33:06;;;;;;;5.87;3.37;;;;;;;19.10;37.81;100294.64;4833044;60;1141009;-75
2021/04/11 12:38:41;;;;;;;9.63;3.33;;;;;;;19.23;37.68;100291.37;4733079;61;1138630;-75
2021/04/11 12:44:17;;;;;;;17.65;4.12;;;;;;;19.31;38.04;100292.63;4916521;58;1138464;-75
2021/04/11 12:50:07;;;;;;;5.58;2.65;;;;;;;19.22;38.40;100285.18;4859029;60;1140817;-75
2021/04/11 12:55:51;;;;;;;9.45;2.90;;;;;;;19.25;34.25;100298.20;4859280;59;1138751;-75
2021/04/11 13:01:31;;;;;;;14.63;4.17;;;;;;;19.38;36.56;100276.16;4847017;59;1138538;-74
2021/04/11 13:07:18;;;;;;;8.78;2.85;;;;;;;19.47;35.97;100275.05;4998223;58;1140641;-76
2021/04/11 13:13:16;;;;;;;6.47;3.60;;;;;;;19.43;35.57;100279.11;4998451;58;1138563;-76
2021/04/11 13:19:04;;;;;;;14.15;3.67;;;;;;;19.43;35.88;100280.95;4988988;58;1138510;-75
2021/04/11 13:24:42;;;;;;;12.43;3.42;;;;;;;19.44;36.28;100263.84;4998421;58;1140778;-75
2021/04/11 13:30:20;;;;;;;9.10;3.02;;;;;;;19.39;36.21;100267.61;4998571;57;1140781;-75
2021/04/11 13:35:58;;;;;;;15.32;3.50;;;;;;;19.46;34.91;100265.84;4998758;58;1138645;-72
2021/04/11 13:41:53;;;;;;;9.38;3.80;;;;;;;19.51;36.04;100276.40;5023382;57;1141016;-74
2021/04/11 13:47:54;;;;;;;7.30;2.52;;;;;;;19.53;35.63;100271.69;5052106;57;1138505;-77
2021/04/11 13:53:53;;;;;;;9.65;2.92;;;;;;;19.59;35.91;100276.81;5071868;57;1138752;-78
2021/04/11 13:59:34;;;;;;;10.23;2.77;;;;;;;19.66;35.81;100273.23;5052158;57;1138336;-73
2021/04/11 14:05:28;;;;;;;10.03;2.83;;;;;;;19.72;36.02;100269.46;5052941;56;1140592;-79
2021/04/11 14:11:14;;;;;;;5.37;2.30;;;;;;;19.58;36.84;100267.09;5052044;57;1140637;-79
2021/04/11 14:17:01;;;;;;;5.53;2.60;;;;;;;19.47;36.67;100276.39;5052256;57;1138876;-78
2021/04/11 14:22:45;;;;;;;3.92;2.12;;;;;;;19.21;36.66;100277.31;5054090;57;1138646;-79
2021/04/11 14:28:37;;;;;;;6.53;2.42;;;;;;;19.01;37.46;100279.64;5084612;57;1138512;-73
2021/04/11 14:34:12;;;;;;;15.88;2.72;;;;;;;18.94;37.62;100293.45;5047502;57;1138759;-74
2021/04/11 14:39:40;;;;;;;16.40;2.45;;;;;;;18.88;37.77;100307.05;5082921;57;1140800;-75
2021/04/11 14:45:09;;;;;;;7.14;1.56;;;;;;;18.83;37.10;100297.35;4990953;57;1140625;-89
2021/04/11 14:50:40;;;;;;;8.55;2.40;;;;;;;18.71;37.41;100303.30;4984484;58;1138581;-74
2021/04/11 14:56:15;;;;;;;5.95;2.20;;;;;;;18.66;38.21;100302.48;4973682;58;1138499;-73
2021/04/11 15:01:52;;;;;;;10.06;2.24;;;;;;;18.61;37.77;100311.57;4966387;58;1138555;-76
2021/04/11 15:07:24;;;;;;;8.13;1.95;;;;;;;18.48;37.60;100304.58;4981072;58;1140837;-74
2021/04/11 15:13:39;;;;;;;4.93;1.90;;;;;;;18.38;38.93;100313.31;4970713;58;1138333;-80
2021/04/11 15:19:43;;;;;;;4.15;3.80;;;;;;;18.33;39.31;100314.36;4964789;58;1138935;-79
2021/04/11 15:25:26;;;;;;;6.43;1.73;;;;;;;18.21;40.21;100304.52;4954778;58;1138727;-69
2021/04/11 15:31:20;;;;;;;5.33;2.55;;;;;;;18.16;40.03;100313.59;4920273;58;1138541;-76
2021/04/11 15:36:55;;;;;;;15.07;3.10;;;;;;;17.91;40.39;100314.98;4931345;58;1138566;-77
2021/04/11 15:42:29;;;;;;;8.74;3.68;;;;;;;17.84;41.21;100303.31;5002802;58;1140820;-77
2021/04/11 15:48:18;;;;;;;8.55;2.35;;;;;;;17.78;40.71;100289.27;4958969;58;1138561;-74
2021/04/11 15:54:07;;;;;;;16.00;5.33;;;;;;;17.67;41.13;100302.17;4968913;58;1138941;-75
2021/04/11 15:59:45;;;;;;;6.00;2.35;;;;;;;17.52;41.20;100304.17;4955922;58;1140609;-78
2021/04/11 16:05:41;;;;;;;17.53;8.63;;;;;;;17.47;41.58;100293.64;4869960;59;1138784;-79
2021/04/11 16:11:28;;;;;;;25.00;17.20;;;;;;;17.43;42.14;100291.80;4818948;59;1140835;-75
2021/04/11 16:17:45;;;;;;;54.37;18.07;;;;;;;17.40;42.85;100281.96;4818824;60;1142759;-80
2021/04/11 16:23:59;;;;;;;42.33;25.50;;;;;;;17.34;42.56;100278.11;4816439;60;1142960;-73
2021/04/11 16:29:43;;;;;;;20.37;9.53;;;;;;;17.30;42.39;100288.80;4818558;59;1142870;-74
2021/04/11 16:35:47;;;;;;;27.40;8.60;;;;;;;17.25;43.04;100287.16;4818175;60;1140875;-79
2021/04/11 16:41:31;;;;;;;9.73;3.70;;;;;;;17.19;43.08;100287.31;4788478;60;1140808;-74
2021/04/11 16:47:13;;;;;;;9.40;5.17;;;;;;;17.17;43.26;100285.30;4931669;58;1138846;-76
2021/04/11 16:52:45;;;;;;;90.53;35.80;;;;;;;17.10;43.46;100286.15;4975636;58;1138795;-71
2021/04/11 16:58:27;;;;;;;22.30;9.53;;;;;;;17.04;44.04;100294.31;4984469;58;1142978;-75
2021/04/11 17:04:09;;;;;;;40.87;24.90;;;;;;;16.94;44.23;100293.66;4970446;58;1140600;-75
2021/04/11 17:10:08;;;;;;;13.38;7.00;;;;;;;16.85;44.22;100290.12;4941119;58;1142726;-76
2021/04/11 17:15:36;;;;;;;20.82;8.00;;;;;;;16.79;44.57;100292.63;4918882;58;1141099;-70
2021/04/11 17:21:05;;;;;;;50.93;15.63;;;;;;;16.68;44.71;100303.60;4978908;58;1140615;-72
2021/04/11 17:26:50;;;;;;;17.65;8.30;;;;;;;16.58;44.94;100310.40;4967780;58;1142772;-70
2021/04/11 17:32:28;;;;;;;14.30;5.95;;;;;;;16.46;45.10;100308.54;4987359;58;1140612;-76
2021/04/11 17:38:10;;;;;;;21.47;12.37;;;;;;;16.37;45.55;100316.66;4969103;58;1140372;-71
2021/04/11 17:44:16;;;;;;;71.00;48.48;;;;;;;16.28;45.77;100318.47;4969094;58;1142504;-75
2021/04/11 17:50:21;;;;;;;50.92;32.65;;;;;;;16.16;46.13;100326.43;5026071;57;1143145;-75
2021/04/11 17:55:54;;;;;;;;;;;;;;;16.06;46.44;100339.03;5026417;57;1142870;-78
2021/04/11 18:01:37;;;;;;;10.23;6.30;;;;;;;15.95;46.72;100344.15;5043390;57;975876;-72
2021/04/11 18:07:38;;;;;;;14.77;5.87;;;;;;;15.82;46.97;100344.58;5018434;57;1138674;-73
2021/04/11 18:13:36;;;;;;;16.20;7.90;;;;;;;15.70;47.30;100347.66;5022946;57;1140373;-74
2021/04/11 18:19:27;;;;;;;26.33;10.73;;;;;;;15.58;47.65;100346.25;4960963;58;1140441;-73
2021/04/11 18:25:00;;;;;;;18.10;8.70;;;;;;;15.43;48.06;100348.56;4961196;58;1142732;-73
2021/04/11 18:30:42;;;;;;;26.20;9.60;;;;;;;15.28;48.42;100353.61;4964739;58;1140654;-72
2021/04/11 18:36:22;;;;;;;8.77;5.80;;;;;;;15.15;48.75;100350.49;4871217;60;1140628;-73
2021/04/11 18:42:11;;;;;;;12.07;5.20;;;;;;;15.06;49.05;100358.08;4960028;58;1138522;-77
2021/04/11 18:47:48;;;;;;;11.35;5.10;;;;;;;14.93;49.39;100355.80;4948334;57;1140611;-76
2021/04/11 18:53:38;;;;;;;14.78;7.80;;;;;;;14.80;49.76;100348.67;4912810;58;1140374;-78
2021/04/11 18:59:27;;;;;;;17.57;5.67;;;;;;;14.67;50.21;100356.15;4972609;58;1140665;-75
2021/04/11 19:05:08;;;;;;;13.27;6.37;;;;;;;14.56;50.41;100351.05;4981943;58;1140778;-77
2021/04/11 19:11:02;;;;;;;16.60;5.95;;;;;;;14.45;50.74;100344.11;4951155;58;1140528;-75
2021/04/11 19:16:47;;;;;;;;;;;;;;;14.36;50.97;100348.44;4921218;58;1140641;-79
2021/04/11 19:22:16;;;;;;;50.20;20.13;;;;;;;14.28;51.23;100348.84;4976594;58;975863;-74
2021/04/11 19:28:05;;;;;;;58.68;21.90;;;;;;;14.20;51.43;100339.44;4945451;58;1140828;-75
2021/04/11 19:33:58;;;;;;;38.95;15.95;;;;;;;14.12;51.62;100336.66;4944574;58;1142970;-76
2021/04/11 19:39:49;;;;;;;21.87;8.77;;;;;;;14.05;51.94;100333.77;4930111;58;1142694;-76
2021/04/11 19:45:30;;;;;;;21.50;10.33;;;;;;;13.97;52.03;100333.64;4945011;58;1140739;-72
2021/04/11 19:51:22;;;;;;;50.70;20.23;;;;;;;13.87;52.21;100324.87;4944379;58;1142832;-77
2021/04/11 19:57:35;;;;;;;46.08;13.98;;;;;;;13.77;52.51;100324.03;4965185;58;1142851;-76
2021/04/11 20:03:30;;;;;;;13.47;6.80;;;;;;;13.66;52.85;100332.53;4782441;60;1142984;-74
2021/04/11 20:09:31;;;;;;;12.90;7.10;;;;;;;13.55;53.31;100323.89;4656622;61;1140621;-76
2021/04/11 20:15:33;;;;;;;17.37;7.47;;;;;;;13.43;53.54;100329.86;4675342;61;1140656;-71
2021/04/11 20:21:18;;;;;;;42.70;13.83;;;;;;;13.37;53.83;100322.45;4630695;62;1141292;-78
2021/04/11 20:26:53;;;;;;;35.17;15.77;;;;;;;13.32;54.02;100325.52;4650087;61;1142942;-75
2021/04/11 20:33:01;;;;;;;21.13;9.97;;;;;;;13.25;54.36;100319.11;4703987;60;1142831;-74
2021/04/11 20:38:51;;;;;;;21.50;9.67;;;;;;;13.14;54.71;100319.20;4780459;61;1140793;-74
2021/04/11 20:44:35;;;;;;;22.47;9.60;;;;;;;13.02;55.01;100321.66;4789416;59;1140594;-74
2021/04/11 20:50:38;;;;;;;14.40;7.90;;;;;;;12.93;55.25;100312.72;4788596;60;1140469;-77
2021/04/11 20:56:58;;;;;;;20.03;8.07;;;;;;;12.83;55.50;100309.20;4788358;60;1140673;-74
2021/04/11 21:02:47;;;;;;;16.67;8.00;;;;;;;12.71;56.14;100309.47;4788462;60;1140879;-76
2021/04/11 21:08:35;;;;;;;17.97;8.17;;;;;;;12.60;56.11;100304.65;4787344;60;1140949;-73
2021/04/11 21:14:20;;;;;;;16.33;7.70;;;;;;;12.54;56.40;100298.55;4856037;59;1141055;-72
2021/04/11 21:20:28;;;;;;;16.45;8.25;;;;;;;12.48;56.60;100299.12;4831204;60;1140729;-77
2021/04/11 21:26:27;;;;;;;16.63;7.63;;;;;;;12.43;56.93;100311.09;4902998;59;1140789;-73
2021/04/11 21:32:00;;;;;;;19.77;8.33;;;;;;;12.33;57.08;100299.99;4863685;58;1140677;-72
2021/04/11 21:37:54;;;;;;;17.03;8.40;;;;;;;12.29;57.21;100307.02;4786502;60;1140646;-74
2021/04/11 21:43:25;;;;;;;15.25;7.78;;;;;;;12.23;57.26;100312.36;4858131;59;1140829;-77
2021/04/11 21:49:27;;;;;;;19.33;8.93;;;;;;;12.17;57.32;100312.91;4786413;60;1140800;-73
2021/04/11 21:54:58;;;;;;;19.90;8.53;;;;;;;12.13;57.31;100315.96;4857638;59;1140677;-74
2021/04/11 22:00:48;;;;;;;18.80;8.50;;;;;;;12.12;57.42;100315.61;4786518;60;1140663;-75
2021/04/11 22:06:31;;;;;;;14.10;7.03;;;;;;;12.07;57.34;100317.84;4857581;59;1141142;-74
2021/04/11 22:12:01;;;;;;;14.53;7.60;;;;;;;12.04;57.35;100318.94;4786398;60;1140637;-77
2021/04/11 22:17:43;;;;;;;23.43;8.47;;;;;;;12.02;57.29;100323.53;4786400;60;1140854;-76
2021/04/11 22:23:18;;;;;;;18.20;7.10;;;;;;;11.98;57.29;100328.73;4782729;61;1140837;-73
2021/04/11 22:28:52;;;;;;;13.72;6.17;;;;;;;11.82;57.26;100317.29;4857864;59;1140671;-75
2021/04/11 22:34:30;;;;;;;13.40;6.27;;;;;;;11.82;57.26;100317.29;4786876;60;1140873;-77
2021/04/11 22:40:11;;;;;;;16.67;7.53;;;;;;;11.83;57.36;100327.41;4786332;60;1140709;-73
2021/04/11 22:46:06;;;;;;;19.90;6.87;;;;;;;11.78;57.44;100332.25;4857913;59;1140638;-74
2021/04/11 22:51:41;;;;;;;16.50;7.72;;;;;;;11.77;57.44;100338.03;4858541;58;1141072;-77
2021/04/11 22:57:11;;;;;;;14.23;6.13;;;;;;;11.77;57.43;100346.46;4858313;58;1140664;-73
2021/04/11 23:02:43;;;;;;;19.92;7.86;;;;;;;11.73;57.41;100349.85;4857813;59;1140648;-75
2021/04/11 23:08:14;;;;;;;12.43;6.87;;;;;;;11.69;57.35;100347.58;4857749;59;1141170;-71
2021/04/11 23:13:42;;;;;;;19.35;7.72;;;;;;;11.63;57.41;100343.63;4857970;59;1141065;-76
2021/04/11 23:19:43;;;;;;;15.87;6.97;;;;;;;11.58;57.54;100345.85;4858019;58;1140857;-75
2021/04/11 23:25:18;;;;;;;16.93;5.97;;;;;;;11.57;57.58;100352.12;4857551;59;1140597;-76
2021/04/11 23:30:57;;;;;;;13.85;5.55;;;;;;;11.53;57.59;100352.85;4857893;59;1140936;-70
2021/04/11 23:36:26;;;;;;;17.93;5.97;;;;;;;11.49;57.68;100343.48;4857728;59;1140637;-75
2021/04/11 23:42:17;;;;;;;7.43;4.60;;;;;;;11.45;57.87;100349.19;4857496;59;1140587;-72
2021/04/11 23:47:59;;;;;;;13.32;5.45;;;;;;;11.43;57.78;100348.47;4858016;58;1138631;-75
2021/04/11 23:53:33;;;;;;;16.30;5.20;;;;;;;11.41;57.81;100347.27;4856524;59;1140696;-77
2021/04/11 23:59:18;;;;;;;15.83;5.10;;;;;;;11.38;57.89;100347.52;4768394;61;1140921;-75
